Time;durP1;ratioP1;P1;durP2;ratioP2;P2;SDS_P1;SDS_P2;PMS_P1;PMS_P2;Temp;Humidity;BMP_temperature;BMP_pressure;BME280_temperature;BME280_humidity;BME280_pressure;Samples;Min_cycle;Max_cycle;Signal;HPM_P1;HPM_P2
2023/05/17 00:02:19;;;;;;;29.55;26.02;;;15.10;99.90;;;;;;5209772;28;20036;-75
2023/05/17 00:04:50;;;;;;;26.13;23.50;;;15.30;99.90;;;;;;5209880;28;20029;-75
2023/05/17 00:07:21;;;;;;;27.05;24.08;;;15.50;99.90;;;;;;5210022;28;20029;-76
2023/05/17 00:09:52;;;;;;;28.27;25.52;;;15.30;99.90;;;;;;5209784;28;20480;-76
2023/05/17 00:12:23;;;;;;;26.85;24.30;;;15.40;99.90;;;;;;5191759;28;20052;-76
2023/05/17 00:14:54;;;;;;;27.10;24.15;;;15.40;99.90;;;;;;5209617;28;20021;-76
2023/05/17 00:17:24;;;;;;;26.08;23.50;;;15.30;99.90;;;;;;5209703;28;20037;-76
2023/05/17 00:19:55;;;;;;;25.08;22.73;;;15.20;99.90;;;;;;5209659;28;20030;-76
2023/05/17 00:22:26;;;;;;;26.58;23.90;;;15.10;99.90;;;;;;5209669;28;20037;-76
2023/05/17 00:24:57;;;;;;;25.10;20.88;;;15.10;99.90;;;;;;5209799;28;20025;-76
2023/05/17 00:27:28;;;;;;;25.48;22.88;;;15.10;99.90;;;;;;5192175;28;20033;-76
2023/05/17 00:29:59;;;;;;;28.48;25.45;;;15.10;99.90;;;;;;5191721;28;20473;-76
2023/05/17 00:32:29;;;;;;;27.48;24.73;;;14.90;99.90;;;;;;5209478;28;20022;-76
2023/05/17 00:35:00;;;;;;;30.55;27.52;;;15.00;99.90;;;;;;5209279;28;20018;-76
2023/05/17 00:37:31;;;;;;;30.27;27.45;;;14.80;99.90;;;;;;5209238;28;20036;-76
2023/05/17 00:40:04;;;;;;;27.50;24.83;;;14.90;99.90;;;;;;5209332;28;20037;-76
2023/05/17 00:42:35;;;;;;;27.58;24.90;;;15.10;99.90;;;;;;5209655;28;20373;-75
2023/05/17 00:45:06;;;;;;;29.60;26.45;;;15.00;99.90;;;;;;5209183;28;20092;-76
2023/05/17 00:47:37;;;;;;;30.88;27.98;;;15.00;99.90;;;;;;5209088;28;20049;-76
2023/05/17 00:50:08;;;;;;;30.42;26.58;;;14.90;99.90;;;;;;5191126;28;20588;-75
2023/05/17 00:52:40;;;;;;;33.58;28.75;;;15.10;99.90;;;;;;5191557;28;20034;-76
2023/05/17 00:55:11;;;;;;;32.17;29.17;;;15.20;99.90;;;;;;5191316;28;20114;-77
2023/05/17 00:57:42;;;;;;;33.25;29.95;;;15.30;99.90;;;;;;5208974;28;20026;-76
2023/05/17 01:00:13;;;;;;;31.42;28.02;;;15.30;99.90;;;;;;5208854;28;20036;-76
2023/05/17 01:02:47;;;;;;;33.83;30.38;;;15.40;99.90;;;;;;5208715;28;20108;-76
2023/05/17 01:05:18;;;;;;;30.60;27.58;;;15.40;99.90;;;;;;5208634;28;20429;-76
2023/05/17 01:07:49;;;;;;;33.45;30.42;;;15.20;99.90;;;;;;5208770;28;20055;-76
2023/05/17 01:10:20;;;;;;;34.55;31.17;;;15.30;99.90;;;;;;5208406;28;20406;-76
2023/05/17 01:13:12;;;;;;;34.60;31.10;;;15.40;99.90;;;;;;5208555;28;20023;-76
2023/05/17 01:15:49;;;;;;;34.05;30.52;;;15.20;99.90;;;;;;5208403;28;20022;-76
2023/05/17 01:18:37;;;;;;;32.95;29.98;;;15.20;99.90;;;;;;5190387;28;20550;-76
2023/05/17 01:21:36;;;;;;;30.83;27.77;;;15.50;99.90;;;;;;5207966;28;20077;-76
2023/05/17 01:24:25;;;;;;;30.80;27.67;;;15.40;99.90;;;;;;5207547;28;20120;-76
2023/05/17 01:26:58;;;;;;;32.03;28.80;;;15.40;99.90;;;;;;5208336;28;20036;-76
2023/05/17 01:29:30;;;;;;;33.00;29.65;;;15.40;99.90;;;;;;5208192;28;20021;-76
2023/05/17 01:32:03;;;;;;;33.40;30.20;;;15.30;99.90;;;;;;5190131;28;20111;-76
2023/05/17 01:34:34;;;;;;;31.40;28.50;;;15.30;99.90;;;;;;5207870;28;20148;-76
2023/05/17 01:37:05;;;;;;;31.52;28.40;;;15.30;99.90;;;;;;5207693;28;20441;-76
2023/05/17 01:39:36;;;;;;;30.90;27.77;;;15.30;99.90;;;;;;5190403;28;20124;-76
2023/05/17 01:42:16;;;;;;;30.17;27.27;;;15.20;99.90;;;;;;5207905;28;20500;-76
2023/05/17 01:45:08;;;;;;;30.00;26.30;;;15.30;99.90;;;;;;5208079;28;20025;-76
2023/05/17 01:47:49;;;;;;;28.52;25.73;;;15.40;99.90;;;;;;5207758;28;20441;-76
2023/05/17 01:50:24;;;;;;;29.67;26.45;;;15.30;99.90;;;;;;5207600;28;20084;-76
2023/05/17 01:53:02;;;;;;;29.98;26.75;;;15.10;99.90;;;;;;5207591;28;20044;-76
2023/05/17 01:55:55;;;;;;;29.90;26.10;;;15.10;99.90;;;;;;5207717;28;20030;-76
2023/05/17 01:58:29;;;;;;;30.73;27.45;;;15.10;99.90;;;;;;5207652;28;20029;-76
2023/05/17 02:01:01;;;;;;;32.25;28.95;;;15.10;99.90;;;;;;5207083;28;20109;-76
2023/05/17 02:03:32;;;;;;;28.85;25.95;;;15.10;99.90;;;;;;5206804;28;20049;-76
2023/05/17 02:06:03;;;;;;;31.40;28.48;;;15.10;99.90;;;;;;5207514;28;20355;-76
2023/05/17 02:08:34;;;;;;;32.50;28.42;;;15.10;99.90;;;;;;5207437;28;20029;-76
2023/05/17 02:11:05;;;;;;;35.53;31.90;;;15.00;99.90;;;;;;5207184;28;20421;-76
2023/05/17 02:13:36;;;;;;;32.47;29.08;;;15.10;99.90;;;;;;5207230;28;20476;-76
2023/05/17 02:16:06;;;;;;;32.45;29.15;;;15.10;99.90;;;;;;5207075;28;20017;-76
2023/05/17 02:18:39;;;;;;;30.30;27.40;;;15.20;99.90;;;;;;5189178;28;20501;-77
2023/05/17 02:21:11;;;;;;;29.65;26.48;;;15.30;99.90;;;;;;5207080;28;20038;-76
2023/05/17 02:23:42;;;;;;;28.98;26.17;;;15.10;99.90;;;;;;5207095;28;20025;-76
2023/05/17 02:26:13;;;;;;;29.88;26.88;;;15.30;99.90;;;;;;5207184;28;20026;-77
2023/05/17 02:28:44;;;;;;;31.80;28.55;;;15.30;99.90;;;;;;5206950;28;20052;-76
2023/05/17 02:31:15;;;;;;;30.05;27.00;;;15.20;99.90;;;;;;5206851;28;20025;-76
2023/05/17 02:33:46;;;;;;;28.17;25.15;;;15.40;99.90;;;;;;5206793;28;20025;-76
2023/05/17 02:36:17;;;;;;;28.75;24.17;;;15.30;99.90;;;;;;5206484;28;20107;-76
2023/05/17 02:38:47;;;;;;;28.67;25.48;;;15.30;99.90;;;;;;5189002;28;20482;-77
2023/05/17 02:41:18;;;;;;;29.65;26.48;;;15.20;99.90;;;;;;5206667;28;20528;-76
2023/05/17 02:43:49;;;;;;;30.25;26.63;;;15.20;99.90;;;;;;5206544;28;20032;-77
2023/05/17 02:46:20;;;;;;;33.00;29.30;;;15.20;99.90;;;;;;5188777;28;20025;-77
2023/05/17 02:48:51;;;;;;;31.35;28.25;;;15.20;99.90;;;;;;5188764;28;20036;-78
2023/05/17 02:51:22;;;;;;;33.97;30.52;;;15.30;99.90;;;;;;5206729;28;20029;-76
2023/05/17 02:53:53;;;;;;;35.00;29.98;;;15.20;99.90;;;;;;5206552;28;20468;-76
2023/05/17 02:56:24;;;;;;;32.25;29.13;;;15.10;99.90;;;;;;5206569;28;20492;-78
2023/05/17 02:58:56;;;;;;;34.28;30.30;;;15.10;99.90;;;;;;5206642;28;20108;-78
2023/05/17 03:01:27;;;;;;;35.80;31.75;;;15.10;99.90;;;;;;5188698;28;20470;-78
2023/05/17 03:03:58;;;;;;;34.88;31.35;;;15.10;99.90;;;;;;5206323;28;20036;-78
2023/05/17 03:06:31;;;;;;;38.95;34.17;;;15.00;99.90;;;;;;5188907;28;20373;-79
2023/05/17 03:09:01;;;;;;;37.85;34.08;;;15.20;99.90;;;;;;5206521;28;20026;-78
2023/05/17 03:11:32;;;;;;;34.20;30.75;;;15.10;99.90;;;;;;5206363;28;20496;-76
2023/05/17 03:14:03;;;;;;;36.30;32.70;;;15.20;99.90;;;;;;5206017;28;20410;-79
2023/05/17 03:16:34;;;;;;;35.28;31.33;;;15.20;99.90;;;;;;5188591;28;20022;-79
2023/05/17 03:19:05;;;;;;;32.85;29.48;;;15.10;99.90;;;;;;5206021;28;20044;-79
2023/05/17 03:21:36;;;;;;;35.22;31.80;;;15.10;99.90;;;;;;5206024;28;20049;-79
2023/05/17 03:24:07;;;;;;;34.78;31.05;;;15.20;99.90;;;;;;5188213;28;20382;-79
2023/05/17 03:26:38;;;;;;;30.48;27.60;;;15.10;99.90;;;;;;5188444;28;20453;-79
2023/05/17 03:29:09;;;;;;;33.08;30.10;;;15.10;99.90;;;;;;5206177;28;20022;-79
2023/05/17 03:31:40;;;;;;;31.63;28.83;;;15.10;99.90;;;;;;5206166;28;20021;-80
2023/05/17 03:34:11;;;;;;;34.38;30.80;;;15.10;99.90;;;;;;5206237;28;20036;-79
2023/05/17 03:36:42;;;;;;;31.92;28.75;;;15.10;99.90;;;;;;5205934;28;20052;-80
2023/05/17 03:39:13;;;;;;;33.58;30.48;;;15.30;99.90;;;;;;5205534;28;20025;-79
2023/05/17 03:41:44;;;;;;;31.70;28.40;;;15.40;99.90;;;;;;5205846;28;20046;-79
2023/05/17 03:44:15;;;;;;;32.85;29.83;;;15.40;99.90;;;;;;5205798;28;20018;-79
2023/05/17 03:46:45;;;;;;;32.85;29.77;;;15.40;99.90;;;;;;5205828;28;20034;-80
2023/05/17 03:49:16;;;;;;;31.00;28.20;;;15.40;99.90;;;;;;5207825;28;20049;-79
2023/05/17 03:51:47;;;;;;;31.73;28.73;;;15.50;99.90;;;;;;5209564;28;20092;-79
2023/05/17 03:54:18;;;;;;;30.77;27.65;;;15.50;99.90;;;;;;5209455;28;20125;-79
2023/05/17 03:56:49;;;;;;;31.65;28.52;;;15.40;99.90;;;;;;5209293;28;20118;-78
2023/05/17 03:59:20;;;;;;;30.20;27.52;;;15.20;99.90;;;;;;5209289;28;20406;-79
2023/05/17 04:01:51;;;;;;;29.90;27.17;;;15.30;99.90;;;;;;5191284;28;20136;-80
2023/05/17 04:04:21;;;;;;;31.10;28.27;;;15.20;99.90;;;;;;5191268;28;20504;-79
2023/05/17 04:06:52;;;;;;;30.38;27.67;;;15.30;99.90;;;;;;5208767;28;20493;-79
2023/05/17 04:09:24;;;;;;;29.73;26.98;;;15.30;99.90;;;;;;5208821;28;20026;-79
2023/05/17 04:11:55;;;;;;;30.60;27.95;;;15.50;99.90;;;;;;5208870;28;20076;-79
2023/05/17 04:14:26;;;;;;;31.58;28.70;;;15.50;99.90;;;;;;5208899;28;20429;-80
2023/05/17 04:16:57;;;;;;;31.98;29.35;;;15.50;99.90;;;;;;5208542;28;20112;-79
2023/05/17 04:19:27;;;;;;;35.42;32.33;;;15.40;99.90;;;;;;5190948;28;20509;-79
2023/05/17 04:21:58;;;;;;;35.08;32.08;;;15.40;99.90;;;;;;5208275;28;20122;-79
2023/05/17 04:24:29;;;;;;;36.67;33.17;;;15.30;99.90;;;;;;5208429;28;20021;-79
2023/05/17 04:27:00;;;;;;;37.30;34.03;;;15.30;99.90;;;;;;5190905;28;20088;-79
2023/05/17 04:29:31;;;;;;;37.55;34.15;;;15.50;99.90;;;;;;5208334;28;20088;-79
2023/05/17 04:32:02;;;;;;;39.58;36.08;;;15.30;99.90;;;;;;5208097;28;20466;-78
2023/05/17 04:34:33;;;;;;;40.55;36.88;;;15.40;99.90;;;;;;5208651;28;20027;-76
2023/05/17 04:37:04;;;;;;;32.95;30.08;;;15.40;99.90;;;;;;5208304;28;20740;-79
2023/05/17 04:39:35;;;;;;;38.55;34.75;;;15.40;99.90;;;;;;5190487;28;20026;-79
2023/05/17 04:42:06;;;;;;;37.70;34.05;;;15.50;99.90;;;;;;5208016;28;20037;-79
2023/05/17 04:44:37;;;;;;;34.55;31.40;;;15.60;99.90;;;;;;5190553;28;20076;-78
2023/05/17 04:47:08;;;;;;;34.22;31.13;;;15.70;99.90;;;;;;5207533;28;20030;-79
2023/05/17 04:49:39;;;;;;;34.83;31.52;;;15.80;99.90;;;;;;5207279;28;20042;-78
2023/05/17 04:52:09;;;;;;;36.17;32.97;;;15.80;99.90;;;;;;5208157;28;20023;-78
2023/05/17 04:54:40;;;;;;;33.85;30.55;;;15.60;99.90;;;;;;5207904;28;20033;-77
2023/05/17 04:57:11;;;;;;;33.53;30.60;;;15.60;99.90;;;;;;5190183;28;20017;-78
2023/05/17 04:59:42;;;;;;;35.13;32.00;;;15.60;99.90;;;;;;5206431;28;20052;-78
2023/05/17 05:02:13;;;;;;;36.35;33.10;;;15.70;99.90;;;;;;5207403;28;20040;-78
2023/05/17 05:04:44;;;;;;;36.25;32.70;;;15.60;99.90;;;;;;5207307;28;20120;-77
2023/05/17 05:07:15;;;;;;;33.75;30.75;;;15.60;99.90;;;;;;5207781;28;20056;-78
2023/05/17 05:09:46;;;;;;;33.80;30.65;;;15.70;99.90;;;;;;5207761;28;20025;-78
2023/05/17 05:12:17;;;;;;;36.20;32.80;;;15.80;99.90;;;;;;5207791;28;20478;-78
2023/05/17 05:14:48;;;;;;;34.38;31.13;;;15.80;99.90;;;;;;5208355;28;20022;-78
2023/05/17 05:17:19;;;;;;;34.13;31.15;;;15.70;99.90;;;;;;5754737;22;20062;-77
2023/05/17 05:19:50;;;;;;;30.13;27.17;;;15.80;99.90;;;;;;5272218;28;20027;-77
2023/05/17 05:22:21;;;;;;;29.30;26.50;;;15.80;99.90;;;;;;5290719;28;20040;-77
2023/05/17 05:24:52;;;;;;;33.70;30.30;;;15.90;99.90;;;;;;5290469;28;20035;-77
2023/05/17 05:27:23;;;;;;;33.00;29.58;;;15.80;99.90;;;;;;5290644;28;20371;-76
2023/05/17 05:29:55;;;;;;;34.47;31.08;;;15.80;99.90;;;;;;5290379;28;20091;-76
2023/05/17 05:32:25;;;;;;;32.25;29.08;;;15.80;99.90;;;;;;5290533;28;20051;-77
2023/05/17 05:34:58;;;;;;;36.65;33.20;;;15.90;99.90;;;;;;5272511;28;20050;-76
2023/05/17 05:37:29;;;;;;;38.88;34.92;;;15.90;99.90;;;;;;5290152;28;20024;-76
2023/05/17 05:40:00;;;;;;;35.17;31.45;;;15.90;99.90;;;;;;5271937;28;20051;-76
2023/05/17 05:42:31;;;;;;;35.63;32.05;;;15.90;99.90;;;;;;5290513;28;20027;-76
2023/05/17 05:45:02;;;;;;;40.25;33.28;;;15.90;99.90;;;;;;5290038;28;20029;-76
2023/05/17 05:47:32;;;;;;;37.22;33.22;;;15.80;99.90;;;;;;5289958;28;20027;-77
2023/05/17 05:50:05;;;;;;;36.88;32.83;;;15.80;99.90;;;;;;5289985;28;20491;-76
2023/05/17 05:52:36;;;;;;;38.72;34.65;;;15.80;99.90;;;;;;5289887;28;20051;-76
2023/05/17 05:55:07;;;;;;;36.63;32.97;;;15.80;99.90;;;;;;5289833;28;20048;-77
2023/05/17 05:57:38;;;;;;;37.90;33.85;;;15.80;99.90;;;;;;5289628;28;20475;-76
2023/05/17 06:00:11;;;;;;;39.22;35.05;;;15.80;99.90;;;;;;5289478;28;20058;-76
2023/05/17 06:02:42;;;;;;;39.78;33.85;;;15.80;99.90;;;;;;5271626;28;20124;-76
2023/05/17 06:05:13;;;;;;;37.65;32.78;;;15.80;99.90;;;;;;5289627;28;20092;-76
2023/05/17 06:07:43;;;;;;;35.10;30.17;;;15.80;99.90;;;;;;5289523;28;20032;-76
2023/05/17 06:10:14;;;;;;;33.20;29.55;;;15.80;99.90;;;;;;5289246;28;20429;-76
2023/05/17 06:12:45;;;;;;;37.42;30.45;;;15.90;99.90;;;;;;5271237;28;20467;-76
2023/05/17 06:15:16;;;;;;;36.80;29.40;;;15.80;99.90;;;;;;5289490;28;20494;-77
2023/05/17 06:17:47;;;;;;;31.55;28.15;;;15.90;99.90;;;;;;5289224;28;20043;-76
2023/05/17 06:20:18;;;;;;;34.15;29.02;;;15.90;99.90;;;;;;5289317;28;20097;-76
2023/05/17 06:22:49;;;;;;;31.13;27.17;;;15.90;99.90;;;;;;5288890;28;20439;-77
2023/05/17 06:25:20;;;;;;;31.48;25.13;;;15.90;99.90;;;;;;5270580;28;20495;-76
2023/05/17 06:27:51;;;;;;;30.08;25.13;;;15.80;99.90;;;;;;5271348;28;20134;-77
2023/05/17 06:30:21;;;;;;;34.33;28.05;;;15.80;99.90;;;;;;5289570;28;20100;-77
2023/05/17 06:32:52;;;;;;;34.63;27.55;;;15.90;99.90;;;;;;5289346;28;20031;-76
2023/05/17 06:35:23;;;;;;;34.83;26.60;;;16.00;99.90;;;;;;5270957;28;20031;-77
2023/05/17 06:37:54;;;;;;;36.60;28.80;;;16.00;99.90;;;;;;5289361;28;20024;-77
2023/05/17 06:40:25;;;;;;;31.55;26.92;;;16.00;99.90;;;;;;5289044;28;20533;-77
2023/05/17 06:42:56;;;;;;;28.40;24.20;;;16.00;99.90;;;;;;5289075;28;20024;-77
2023/05/17 06:45:27;;;;;;;30.05;24.60;;;16.00;99.90;;;;;;5270594;28;20012;-76
2023/05/17 06:47:58;;;;;;;29.70;24.88;;;16.10;99.90;;;;;;5289024;28;20031;-77
2023/05/17 06:50:29;;;;;;;30.85;26.10;;;16.10;99.90;;;;;;5289084;28;20033;-77
2023/05/17 06:53:00;;;;;;;33.78;26.13;;;16.10;99.90;;;;;;5288730;28;20015;-77
2023/05/17 06:55:30;;;;;;;37.47;30.20;;;16.10;99.90;;;;;;5270222;28;20028;-77
2023/05/17 06:58:01;;;;;;;37.72;31.40;;;16.10;99.90;;;;;;5288164;28;20073;-77
2023/05/17 07:00:32;;;;;;;32.58;26.35;;;16.20;99.90;;;;;;5288829;28;20445;-76
2023/05/17 07:03:03;;;;;;;32.60;25.55;;;16.20;99.90;;;;;;5288909;28;20027;-76
2023/05/17 07:05:34;;;;;;;37.63;25.30;;;16.10;99.90;;;;;;5270476;28;20452;-77
2023/05/17 07:08:05;;;;;;;39.65;26.42;;;16.10;99.90;;;;;;5288907;28;20023;-76
2023/05/17 07:10:36;;;;;;;30.50;24.83;;;16.00;99.90;;;;;;5289052;28;20077;-75
2023/05/17 07:13:07;;;;;;;30.23;24.52;;;16.10;99.90;;;;;;5288917;28;20069;-77
2023/05/17 07:15:38;;;;;;;31.92;22.73;;;16.20;99.90;;;;;;5288761;28;20111;-76
2023/05/17 07:18:09;;;;;;;32.67;25.35;;;16.10;99.90;;;;;;5287389;28;20062;-77
2023/05/17 07:20:39;;;;;;;30.38;24.15;;;16.20;99.90;;;;;;5269364;28;20083;-75
2023/05/17 07:23:10;;;;;;;34.63;23.58;;;16.20;99.90;;;;;;5288829;28;20023;-77
2023/05/17 07:25:42;;;;;;;33.60;22.40;;;16.20;99.90;;;;;;5273199;28;20472;-77
2023/05/17 07:28:12;;;;;;;29.67;22.95;;;16.20;99.90;;;;;;5272713;28;20012;-77
2023/05/17 07:30:43;;;;;;;25.10;22.27;;;16.30;99.90;;;;;;5291312;28;20032;-76
2023/05/17 07:33:14;;;;;;;31.45;23.92;;;16.30;99.90;;;;;;5291282;28;20382;-76
2023/05/17 07:35:45;;;;;;;38.95;26.30;;;16.40;99.90;;;;;;5273085;28;20046;-76
2023/05/17 07:38:16;;;;;;;33.60;23.58;;;16.30;99.90;;;;;;5291210;28;20554;-76
2023/05/17 07:40:47;;;;;;;30.05;24.15;;;16.30;99.90;;;;;;5291337;28;20110;-76
2023/05/17 07:43:17;;;;;;;37.78;25.65;;;16.10;99.90;;;;;;5273037;28;20051;-76
2023/05/17 07:45:48;;;;;;;32.53;25.30;;;16.10;99.90;;;;;;5291291;28;20088;-76
2023/05/17 07:48:19;;;;;;;32.60;23.45;;;16.00;99.90;;;;;;5291158;28;20055;-76
2023/05/17 07:50:50;;;;;;;31.85;24.55;;;16.20;99.90;;;;;;5291200;28;20027;-75
2023/05/17 07:53:21;;;;;;;30.63;23.52;;;16.20;99.90;;;;;;5291099;28;20475;-76
2023/05/17 07:55:52;;;;;;;35.97;26.27;;;16.20;99.90;;;;;;5272832;28;20031;-76
2023/05/17 07:58:23;;;;;;;29.17;25.20;;;16.10;99.90;;;;;;5290508;28;20069;-76
2023/05/17 08:00:54;;;;;;;36.58;27.13;;;16.20;99.90;;;;;;5291175;28;20023;-76
2023/05/17 08:03:27;;;;;;;37.22;27.85;;;16.10;99.90;;;;;;5291218;28;20039;-76
2023/05/17 08:05:58;;;;;;;34.53;28.85;;;16.10;99.90;;;;;;5290788;28;20103;-76
2023/05/17 08:08:28;;;;;;;34.88;29.02;;;16.10;99.90;;;;;;5291128;28;20106;-76
2023/05/17 08:10:59;;;;;;;39.17;31.15;;;16.20;99.90;;;;;;5290887;28;20829;-76
2023/05/17 08:13:30;;;;;;;37.63;28.13;;;16.20;99.90;;;;;;5290881;28;20099;-75
2023/05/17 08:16:02;;;;;;;40.40;30.15;;;16.20;99.90;;;;;;5239071;28;1441414;-75
2023/05/17 08:18:33;;;;;;;34.88;29.50;;;16.10;99.90;;;;;;5291769;28;20042;-75
2023/05/17 08:21:04;;;;;;;37.65;29.15;;;16.20;99.90;;;;;;5291940;28;20114;-76
2023/05/17 08:23:35;;;;;;;37.25;28.42;;;16.20;99.90;;;;;;5291872;28;20106;-75
2023/05/17 08:26:06;;;;;;;37.13;28.92;;;16.20;99.90;;;;;;5291551;28;20020;-75
2023/05/17 08:28:37;;;;;;;32.22;27.42;;;16.20;99.90;;;;;;5291688;28;20027;-76
2023/05/17 08:31:08;;;;;;;35.70;29.25;;;16.30;99.90;;;;;;5291630;28;20378;-76
2023/05/17 08:33:39;;;;;;;39.30;30.70;;;16.30;99.90;;;;;;5273143;28;20110;-75
2023/05/17 08:36:10;;;;;;;42.38;32.42;;;16.20;99.90;;;;;;5291643;28;20008;-75
2023/05/17 08:38:41;;;;;;;42.47;31.15;;;16.30;99.90;;;;;;5291364;28;20032;-76
2023/05/17 08:41:13;;;;;;;38.85;28.00;;;16.20;99.90;;;;;;5291320;28;20040;-75
2023/05/17 08:43:44;;;;;;;36.17;28.42;;;16.20;99.90;;;;;;5291460;28;20035;-76
2023/05/17 08:46:17;;;;;;;35.75;27.02;;;16.20;99.90;;;;;;5291431;28;20399;-76
2023/05/17 08:48:54;;;;;;;39.90;27.90;;;16.10;99.90;;;;;;5291611;28;20066;-76
2023/05/17 08:51:26;;;;;;;39.45;29.83;;;16.20;99.90;;;;;;5291498;28;20015;-75
2023/05/17 08:53:58;;;;;;;37.60;28.15;;;16.00;99.90;;;;;;5273033;28;20043;-76
2023/05/17 08:56:31;;;;;;;36.92;27.58;;;16.20;99.90;;;;;;5273071;28;20558;-75
2023/05/17 08:59:04;;;;;;;39.28;31.38;;;16.00;99.90;;;;;;5291265;28;20008;-76
2023/05/17 09:01:37;;;;;;;47.35;34.45;;;16.20;99.90;;;;;;5291481;28;20028;-75
2023/05/17 09:04:11;;;;;;;36.47;28.52;;;16.10;99.90;;;;;;5291209;28;20024;-75
2023/05/17 09:06:44;;;;;;;42.03;29.40;;;16.00;99.90;;;;;;5291274;28;20023;-76
2023/05/17 09:09:17;;;;;;;40.55;28.25;;;16.00;99.90;;;;;;5273167;28;20110;-75
2023/05/17 09:11:48;;;;;;;36.35;26.55;;;15.90;99.90;;;;;;5291072;28;20024;-76
2023/05/17 09:14:19;;;;;;;39.72;30.65;;;16.00;99.90;;;;;;5290804;28;20024;-76
2023/05/17 09:16:58;;;;;;;42.55;29.90;;;16.00;99.90;;;;;;5272150;28;20543;-75
2023/05/17 09:19:30;;;;;;;33.40;25.30;;;15.90;99.90;;;;;;5272675;28;20151;-75
2023/05/17 09:22:03;;;;;;;27.17;23.35;;;15.90;99.90;;;;;;5290645;28;20024;-75
2023/05/17 09:24:35;;;;;;;32.47;26.33;;;16.00;99.90;;;;;;5290799;28;20020;-75
2023/05/17 09:27:06;;;;;;;37.95;27.00;;;16.00;99.90;;;;;;5290820;28;20024;-76
2023/05/17 09:29:38;;;;;;;39.22;28.60;;;16.10;99.90;;;;;;5272494;28;20031;-75
2023/05/17 09:32:14;;;;;;;27.90;24.67;;;16.10;99.90;;;;;;5290938;28;20035;-76
2023/05/17 09:34:47;;;;;;;31.98;25.50;;;16.10;99.90;;;;;;5272576;28;20114;-76
2023/05/17 09:37:19;;;;;;;37.15;25.77;;;16.10;99.90;;;;;;5290459;28;20018;-77
2023/05/17 09:39:50;;;;;;;30.48;23.40;;;16.10;99.90;;;;;;5272486;28;20028;-75
2023/05/17 09:42:25;;;;;;;27.58;23.05;;;16.10;99.90;;;;;;5290342;28;20623;-75
2023/05/17 09:45:00;;;;;;;30.08;24.08;;;16.10;99.90;;;;;;5290237;28;20031;-75
2023/05/17 09:47:34;;;;;;;24.10;21.20;;;16.10;99.90;;;;;;5290036;28;20028;-75
2023/05/17 09:50:07;;;;;;;29.17;21.20;;;16.10;99.90;;;;;;5271967;28;20032;-75
2023/05/17 09:52:38;;;;;;;30.85;21.65;;;15.80;99.90;;;;;;5290231;28;20098;-75
2023/05/17 09:55:10;;;;;;;29.23;23.27;;;16.00;99.90;;;;;;5290361;28;20316;-75
2023/05/17 09:57:41;;;;;;;27.25;22.27;;;16.10;99.90;;;;;;5271744;28;20027;-75
2023/05/17 10:00:13;;;;;;;28.83;21.23;;;16.10;99.90;;;;;;5271547;28;20028;-75
2023/05/17 10:02:46;;;;;;;28.38;21.10;;;16.30;99.90;;;;;;5289579;28;20111;-76
2023/05/17 10:05:19;;;;;;;25.00;21.73;;;16.40;99.90;;;;;;5290133;28;20076;-76
2023/05/17 10:07:51;;;;;;;28.02;21.98;;;16.40;99.90;;;;;;5289920;28;20015;-75
2023/05/17 10:10:22;;;;;;;23.88;21.45;;;16.40;99.90;;;;;;5271551;28;20016;-76
2023/05/17 10:12:53;;;;;;;24.42;20.95;;;16.40;99.90;;;;;;5271914;28;20870;-76
2023/05/17 10:15:25;;;;;;;28.65;22.10;;;16.20;99.90;;;;;;5289792;28;20144;-76
2023/05/17 10:17:56;;;;;;;26.90;21.20;;;16.10;99.90;;;;;;5289071;28;20095;-76
2023/05/17 10:20:27;;;;;;;31.75;23.00;;;16.30;99.90;;;;;;5289799;28;20030;-75
2023/05/17 10:23:02;;;;;;;25.08;22.42;;;16.30;99.90;;;;;;5289510;28;20070;-76
2023/05/17 10:25:33;;;;;;;27.23;24.33;;;16.30;99.90;;;;;;5289805;28;20023;-76
2023/05/17 10:28:06;;;;;;;29.02;25.85;;;16.50;99.90;;;;;;5288860;28;20036;-75
2023/05/17 10:30:38;;;;;;;27.58;24.63;;;16.70;99.90;;;;;;5289317;28;20531;-75
2023/05/17 10:33:12;;;;;;;24.30;21.75;;;16.70;99.90;;;;;;5289453;28;20220;-75
2023/05/17 10:35:43;;;;;;;26.05;23.35;;;16.60;99.90;;;;;;5289386;28;20024;-75
2023/05/17 10:38:15;;;;;;;27.77;24.90;;;16.70;99.90;;;;;;5289142;28;20024;-76
2023/05/17 10:40:47;;;;;;;26.70;24.05;;;17.00;99.90;;;;;;5288997;28;20130;-76
2023/05/17 10:43:18;;;;;;;31.88;28.38;;;17.10;99.90;;;;;;5289156;28;20055;-76
2023/05/17 10:45:50;;;;;;;30.23;27.08;;;17.30;99.90;;;;;;5270068;28;20066;-75
2023/05/17 10:48:22;;;;;;;30.58;27.42;;;17.40;99.90;;;;;;5289142;28;20046;-76
2023/05/17 10:50:53;;;;;;;32.15;28.08;;;17.50;99.90;;;;;;5288613;28;20038;-76
2023/05/17 10:53:24;;;;;;;36.42;30.65;;;17.40;99.90;;;;;;5289173;28;20383;-75
2023/05/17 10:55:55;;;;;;;33.22;29.67;;;17.40;99.90;;;;;;5288916;28;20107;-76
2023/05/17 10:58:28;;;;;;;31.50;27.80;;;17.20;99.90;;;;;;5287985;28;20391;-76
2023/05/17 11:00:59;;;;;;;31.83;27.10;;;17.20;99.90;;;;;;5288742;28;20084;-76
2023/05/17 11:03:33;;;;;;;31.52;27.80;;;17.30;99.90;;;;;;5270848;28;20024;-76
2023/05/17 11:06:10;;;;;;;31.88;28.27;;;17.30;99.90;;;;;;5270519;28;20039;-76
2023/05/17 11:09:05;;;;;;;31.05;26.40;;;17.30;99.90;;;;;;5288820;28;20363;-76
2023/05/17 11:11:36;;;;;;;32.45;25.55;;;17.40;99.90;;;;;;5288802;28;20098;-76
2023/05/17 11:14:10;;;;;;;28.45;25.55;;;17.30;99.90;;;;;;5288620;28;20110;-76
2023/05/17 11:16:41;;;;;;;27.77;24.92;;;17.40;99.90;;;;;;5288676;28;20039;-76
2023/05/17 11:19:12;;;;;;;27.92;24.67;;;17.40;99.90;;;;;;5289113;28;20038;-76
2023/05/17 11:21:47;;;;;;;30.77;27.58;;;17.20;99.90;;;;;;5288785;28;20507;-75
2023/05/17 11:24:28;;;;;;;32.97;26.80;;;17.40;99.90;;;;;;5289204;28;20024;-76
2023/05/17 11:41:20;;;;;;;;;;;17.30;99.90;;;;;;5307495;27;20891;-72
2023/05/17 11:43:52;;;;;;;26.15;23.05;;;16.90;99.90;;;;;;5306897;27;20366;-73
2023/05/17 11:46:23;;;;;;;28.88;23.25;;;16.90;99.90;;;;;;5307106;27;20027;-72
2023/05/17 11:48:55;;;;;;;29.98;24.85;;;17.00;99.90;;;;;;5306725;27;20054;-75
2023/05/17 11:51:26;;;;;;;30.75;25.90;;;17.10;99.90;;;;;;5307293;27;20035;-72
2023/05/17 11:54:02;;;;;;;30.70;25.70;;;16.90;99.90;;;;;;5307218;27;20031;-72
2023/05/17 11:56:38;;;;;;;30.85;27.77;;;17.10;99.90;;;;;;5306965;27;20030;-73
2023/05/17 11:59:09;;;;;;;34.70;28.17;;;17.10;99.90;;;;;;5288494;27;20019;-73
2023/05/17 12:01:48;;;;;;;38.28;29.58;;;17.30;99.90;;;;;;5306826;27;20167;-73
2023/05/17 12:04:24;;;;;;;28.75;24.73;;;17.40;99.90;;;;;;5306522;27;20399;-74
2023/05/17 12:06:57;;;;;;;29.90;26.17;;;17.40;99.90;;;;;;5306459;27;20042;-72
2023/05/17 12:09:28;;;;;;;27.88;24.60;;;17.50;99.90;;;;;;5306230;27;20019;-72
2023/05/17 12:12:03;;;;;;;25.95;23.27;;;17.50;99.90;;;;;;5306348;27;20071;-72
2023/05/17 12:14:34;;;;;;;30.63;25.63;;;17.50;99.90;;;;;;5306352;27;20555;-72
2023/05/17 12:17:08;;;;;;;26.10;23.02;;;17.80;99.90;;;;;;5306214;27;20015;-72
2023/05/17 12:19:38;;;;;;;26.98;22.52;;;17.50;99.90;;;;;;5305928;27;20026;-72
2023/05/17 12:22:13;;;;;;;24.35;21.90;;;17.70;99.90;;;;;;5287605;27;20383;-72
2023/05/17 12:24:44;;;;;;;27.08;24.45;;;17.70;99.90;;;;;;5305937;27;20023;-72
2023/05/17 12:27:25;;;;;;;28.35;24.35;;;17.70;99.90;;;;;;5306053;27;20030;-72
2023/05/17 12:29:56;;;;;;;27.40;22.23;;;17.80;99.90;;;;;;5305746;27;20661;-72
2023/05/17 12:32:27;;;;;;;26.35;20.98;;;17.90;99.90;;;;;;5287548;27;20143;-72
2023/05/17 12:34:57;;;;;;;28.52;23.40;;;18.40;99.90;;;;;;5305824;27;20065;-72
2023/05/17 12:37:29;;;;;;;24.90;21.58;;;18.40;99.90;;;;;;5305716;27;20020;-74
2023/05/17 12:40:03;;;;;;;24.13;21.48;;;18.30;99.90;;;;;;5304112;27;20126;-74
2023/05/17 12:42:34;;;;;;;26.15;23.48;;;18.80;99.90;;;;;;5291229;28;20040;-72
2023/05/17 12:45:06;;;;;;;29.90;26.77;;;18.70;99.90;;;;;;5291471;28;20481;-72
2023/05/17 12:47:37;;;;;;;31.10;27.83;;;18.80;99.90;;;;;;5291279;28;20474;-72
2023/05/17 12:50:08;;;;;;;29.33;26.33;;;18.70;99.90;;;;;;5291175;28;20054;-75
2023/05/17 12:52:40;;;;;;;36.20;32.53;;;18.60;99.90;;;;;;5273077;28;20016;-75
2023/05/17 12:55:12;;;;;;;31.52;28.63;;;18.70;99.90;;;;;;5291249;28;20360;-74
2023/05/17 12:57:50;;;;;;;30.77;28.02;;;18.50;99.90;;;;;;5291212;28;20020;-74
2023/05/17 13:00:21;;;;;;;29.25;26.48;;;18.60;99.90;;;;;;5272961;28;20031;-73
2023/05/17 13:02:52;;;;;;;24.80;22.35;;;18.00;99.90;;;;;;5272749;28;20031;-75
2023/05/17 13:05:23;;;;;;;25.85;21.70;;;17.80;99.90;;;;;;5290765;28;20060;-73
2023/05/17 13:07:54;;;;;;;26.75;23.30;;;17.80;99.90;;;;;;5272314;28;20483;-75